createdAt,value
2019-02-16T00:00:00.000Z,6.9
2019-02-16T00:05:00.000Z,6.9
2019-02-16T00:10:00.000Z,6.9
2019-02-16T00:15:00.000Z,6.9
2019-02-16T00:20:00.000Z,6.8
2019-02-16T00:26:00.000Z,6.7
2019-02-16T00:31:00.000Z,6.7
2019-02-16T00:36:00.000Z,6.7
2019-02-16T00:41:00.000Z,6.6
2019-02-16T00:46:00.000Z,6.5
2019-02-16T00:51:00.000Z,6.5
2019-02-16T00:56:00.000Z,6.6
2019-02-16T01:01:00.000Z,6.5
2019-02-16T01:06:00.000Z,6.4
2019-02-16T01:11:00.000Z,6.3
2019-02-16T01:16:00.000Z,6.1
2019-02-16T01:21:00.000Z,5.9
2019-02-16T01:26:00.000Z,5.8
2019-02-16T01:31:00.000Z,5.7
2019-02-16T01:36:00.000Z,5.5
2019-02-16T01:41:00.000Z,5.5
2019-02-16T01:46:00.000Z,5.4
2019-02-16T01:51:00.000Z,5.4
2019-02-16T01:56:00.000Z,5.3
2019-02-16T02:01:00.000Z,5.3
2019-02-16T02:06:00.000Z,5.3
2019-02-16T02:11:00.000Z,5.3
2019-02-16T02:16:00.000Z,5.3
2019-02-16T02:21:00.000Z,5.3
2019-02-16T02:26:00.000Z,5.3
2019-02-16T02:31:00.000Z,5.3
2019-02-16T02:36:00.000Z,5.4
2019-02-16T02:41:00.000Z,5.4
2019-02-16T02:46:00.000Z,5.5
2019-02-16T02:51:00.000Z,5.5
2019-02-16T02:56:00.000Z,5.5
2019-02-16T03:01:00.000Z,5.5
2019-02-16T03:06:00.000Z,5.5
2019-02-16T03:11:00.000Z,5.4
2019-02-16T03:16:00.000Z,5.3
2019-02-16T03:21:00.000Z,5.3
2019-02-16T03:27:00.000Z,5.3
2019-02-16T03:32:00.000Z,5.3
2019-02-16T03:37:00.000Z,5.4
2019-02-16T03:42:00.000Z,5.3
2019-02-16T03:47:00.000Z,5.3
2019-02-16T03:52:00.000Z,5.2
2019-02-16T03:57:00.000Z,5.0
2019-02-16T04:02:00.000Z,4.9
2019-02-16T04:07:00.000Z,4.7
2019-02-16T04:12:00.000Z,4.7
2019-02-16T04:17:00.000Z,4.6
2019-02-16T04:22:00.000Z,4.6
2019-02-16T04:27:00.000Z,4.5
2019-02-16T04:32:00.000Z,4.5
2019-02-16T04:37:00.000Z,4.5
2019-02-16T04:42:00.000Z,4.5
2019-02-16T04:47:00.000Z,4.5
2019-02-16T04:52:00.000Z,4.5
2019-02-16T04:57:00.000Z,4.5
2019-02-16T05:02:00.000Z,4.6
2019-02-16T05:07:00.000Z,4.6
2019-02-16T05:12:00.000Z,4.6
2019-02-16T05:17:00.000Z,4.6
2019-02-16T05:22:00.000Z,4.6
2019-02-16T05:27:00.000Z,4.6
2019-02-16T05:32:00.000Z,4.6
2019-02-16T05:37:00.000Z,4.7
2019-02-16T05:42:00.000Z,4.8
2019-02-16T05:47:00.000Z,4.8
2019-02-16T05:52:00.000Z,4.8
2019-02-16T05:57:00.000Z,4.8
2019-02-16T06:02:00.000Z,4.8
2019-02-16T06:07:00.000Z,4.8
2019-02-16T06:12:00.000Z,4.8
2019-02-16T06:17:00.000Z,4.8
2019-02-16T06:22:00.000Z,4.8
2019-02-16T06:28:00.000Z,4.7
2019-02-16T06:33:00.000Z,4.7
2019-02-16T06:38:00.000Z,4.7
2019-02-16T06:43:00.000Z,4.8
2019-02-16T06:48:00.000Z,4.8
2019-02-16T06:53:00.000Z,4.8
2019-02-16T06:58:00.000Z,4.9
2019-02-16T07:03:00.000Z,5.0
2019-02-16T07:08:00.000Z,5.0
2019-02-16T07:13:00.000Z,5.1
2019-02-16T07:18:00.000Z,5.2
2019-02-16T07:23:00.000Z,5.4
2019-02-16T07:28:00.000Z,5.6
2019-02-16T07:33:00.000Z,5.7
2019-02-16T07:38:00.000Z,5.9
2019-02-16T07:43:00.000Z,6.1
2019-02-16T07:48:00.000Z,6.3
2019-02-16T07:53:00.000Z,6.3
2019-02-16T07:58:00.000Z,6.3
2019-02-16T08:03:00.000Z,6.4
2019-02-16T08:08:00.000Z,6.6
2019-02-16T08:13:00.000Z,6.8
2019-02-16T08:18:00.000Z,7.0
2019-02-16T08:23:00.000Z,7.3
2019-02-16T08:28:00.000Z,7.6
2019-02-16T08:33:00.000Z,7.9
2019-02-16T08:38:00.000Z,8.2
2019-02-16T08:43:00.000Z,8.3
2019-02-16T08:48:00.000Z,8.5
2019-02-16T08:53:00.000Z,8.7
2019-02-16T08:58:00.000Z,8.9
2019-02-16T09:03:00.000Z,9.2
2019-02-16T09:08:00.000Z,9.4
2019-02-16T09:13:00.000Z,10.2
2019-02-16T09:18:00.000Z,11.7
2019-02-16T09:23:00.000Z,13.1
2019-02-16T09:29:00.000Z,13.8
2019-02-16T09:34:00.000Z,14.1
2019-02-16T09:39:00.000Z,14.4
2019-02-16T09:44:00.000Z,14.5
2019-02-16T09:49:00.000Z,15.0
2019-02-16T09:54:00.000Z,15.4
2019-02-16T09:59:00.000Z,15.7
2019-02-16T10:04:00.000Z,16.3
2019-02-16T10:09:00.000Z,16.3
2019-02-16T10:14:00.000Z,16.4
2019-02-16T10:19:00.000Z,16.8
2019-02-16T10:24:00.000Z,17.0
2019-02-16T10:29:00.000Z,17.3
2019-02-16T10:34:00.000Z,17.5
2019-02-16T10:39:00.000Z,18.0
2019-02-16T10:44:00.000Z,18.5
2019-02-16T10:49:00.000Z,18.9
2019-02-16T10:54:00.000Z,19.2
2019-02-16T10:59:00.000Z,19.2
2019-02-16T11:04:00.000Z,19.3
2019-02-16T11:09:00.000Z,19.2
2019-02-16T11:14:00.000Z,19.0
2019-02-16T11:19:00.000Z,18.9
2019-02-16T11:24:00.000Z,18.6
2019-02-16T11:29:00.000Z,18.4
2019-02-16T11:34:00.000Z,18.2
2019-02-16T11:39:00.000Z,18.1
2019-02-16T11:44:00.000Z,17.9
2019-02-16T11:49:00.000Z,17.7
2019-02-16T11:54:00.000Z,17.5
2019-02-16T11:59:00.000Z,17.1
2019-02-16T12:04:00.000Z,16.8
2019-02-16T12:09:00.000Z,16.4
2019-02-16T12:14:00.000Z,16.0
2019-02-16T12:19:00.000Z,15.7
2019-02-16T12:24:00.000Z,15.4
2019-02-16T12:30:00.000Z,15.3
2019-02-16T12:35:00.000Z,15.2
2019-02-16T12:40:00.000Z,15.1
2019-02-16T12:45:00.000Z,15.1
2019-02-16T12:50:00.000Z,15.2
2019-02-16T12:55:00.000Z,15.1
2019-02-16T13:00:00.000Z,15.1
2019-02-16T13:05:00.000Z,15.2
2019-02-16T13:10:00.000Z,15.2
2019-02-16T13:15:00.000Z,15.2
2019-02-16T13:20:00.000Z,15.2
2019-02-16T13:25:00.000Z,15.3
2019-02-16T13:30:00.000Z,15.3
2019-02-16T13:35:00.000Z,15.4
2019-02-16T13:40:00.000Z,15.4
2019-02-16T13:45:00.000Z,15.4
2019-02-16T13:50:00.000Z,15.5
2019-02-16T13:55:00.000Z,15.5
2019-02-16T14:00:00.000Z,15.5
2019-02-16T14:05:00.000Z,15.5
2019-02-16T14:10:00.000Z,15.4
2019-02-16T14:15:00.000Z,15.3
2019-02-16T14:20:00.000Z,15.2
2019-02-16T14:25:00.000Z,15.1
2019-02-16T14:30:00.000Z,15.0
2019-02-16T14:35:00.000Z,15.0
2019-02-16T14:40:00.000Z,14.8
2019-02-16T14:45:00.000Z,14.6
2019-02-16T14:50:00.000Z,14.5
2019-02-16T14:55:00.000Z,14.4
2019-02-16T15:00:00.000Z,14.2
2019-02-16T15:05:00.000Z,14.0
2019-02-16T15:10:00.000Z,13.8
2019-02-16T15:15:00.000Z,13.6
2019-02-16T15:20:00.000Z,13.5
2019-02-16T15:26:00.000Z,13.3
2019-02-16T15:31:00.000Z,13.2
2019-02-16T15:36:00.000Z,13.0
2019-02-16T15:41:00.000Z,12.8
2019-02-16T15:46:00.000Z,12.5
2019-02-16T15:51:00.000Z,12.4
2019-02-16T15:56:00.000Z,12.3
2019-02-16T16:01:00.000Z,12.2
2019-02-16T16:06:00.000Z,12.1
2019-02-16T16:11:00.000Z,12.0
2019-02-16T16:16:00.000Z,11.8
2019-02-16T16:21:00.000Z,11.7
2019-02-16T16:26:00.000Z,11.6
2019-02-16T16:31:00.000Z,11.5
2019-02-16T16:36:00.000Z,11.4
2019-02-16T16:41:00.000Z,11.3
2019-02-16T16:46:00.000Z,11.2
2019-02-16T16:51:00.000Z,11.1
2019-02-16T16:56:00.000Z,11.0
2019-02-16T17:01:00.000Z,10.9
2019-02-16T17:06:00.000Z,10.8
2019-02-16T17:11:00.000Z,10.7
2019-02-16T17:16:00.000Z,10.7
2019-02-16T17:21:00.000Z,10.6
2019-02-16T17:26:00.000Z,10.5
2019-02-16T17:31:00.000Z,10.4
2019-02-16T17:36:00.000Z,10.4
2019-02-16T17:41:00.000Z,10.3
2019-02-16T17:46:00.000Z,10.3
2019-02-16T17:51:00.000Z,10.2
2019-02-16T17:56:00.000Z,10.2
2019-02-16T18:01:00.000Z,10.1
2019-02-16T18:06:00.000Z,10.1
2019-02-16T18:11:00.000Z,10.0
2019-02-16T18:16:00.000Z,10.0
2019-02-16T18:21:00.000Z,9.9
2019-02-16T18:26:00.000Z,9.8
2019-02-16T18:31:00.000Z,9.7
2019-02-16T18:36:00.000Z,9.6
2019-02-16T18:41:00.000Z,9.5
2019-02-16T18:46:00.000Z,9.4
2019-02-16T18:52:00.000Z,9.4
2019-02-16T18:57:00.000Z,9.3
2019-02-16T19:02:00.000Z,9.2
2019-02-16T19:07:00.000Z,9.2
2019-02-16T19:12:00.000Z,9.2
2019-02-16T19:17:00.000Z,9.2
2019-02-16T19:22:00.000Z,9.1
2019-02-16T19:27:00.000Z,9.0
2019-02-16T19:32:00.000Z,9.0
2019-02-16T19:37:00.000Z,8.9
2019-02-16T19:42:00.000Z,8.8
2019-02-16T19:47:00.000Z,8.7
2019-02-16T19:52:00.000Z,8.7
2019-02-16T19:57:00.000Z,8.7
2019-02-16T20:02:00.000Z,8.6
2019-02-16T20:07:00.000Z,8.6
2019-02-16T20:12:00.000Z,8.5
2019-02-16T20:17:00.000Z,8.5
2019-02-16T20:22:00.000Z,8.5
2019-02-16T20:27:00.000Z,8.4
2019-02-16T20:32:00.000Z,8.4
2019-02-16T20:37:00.000Z,8.3
2019-02-16T20:42:00.000Z,8.2
2019-02-16T20:47:00.000Z,8.2
2019-02-16T20:52:00.000Z,8.2
2019-02-16T20:57:00.000Z,8.1
2019-02-16T21:02:00.000Z,8.1
2019-02-16T21:07:00.000Z,8.1
2019-02-16T21:12:00.000Z,8.0
2019-02-16T21:17:00.000Z,8.0
2019-02-16T21:22:00.000Z,7.9
2019-02-16T21:27:00.000Z,7.9
2019-02-16T21:32:00.000Z,7.8
2019-02-16T21:37:00.000Z,7.8
2019-02-16T21:43:00.000Z,7.8
2019-02-16T21:48:00.000Z,7.7
2019-02-16T21:53:00.000Z,7.7
2019-02-16T21:58:00.000Z,7.7
2019-02-16T22:03:00.000Z,7.6
2019-02-16T22:08:00.000Z,7.6
2019-02-16T22:13:00.000Z,7.3
2019-02-16T22:18:00.000Z,7.1
2019-02-16T22:23:00.000Z,7.0
2019-02-16T22:28:00.000Z,6.9
2019-02-16T22:33:00.000Z,6.9
2019-02-16T22:38:00.000Z,6.8
2019-02-16T22:43:00.000Z,6.7
2019-02-16T22:48:00.000Z,6.7
2019-02-16T22:53:00.000Z,6.6
2019-02-16T22:58:00.000Z,6.6
2019-02-16T23:03:00.000Z,6.6
2019-02-16T23:08:00.000Z,6.5
2019-02-16T23:13:00.000Z,6.5
2019-02-16T23:18:00.000Z,6.5
2019-02-16T23:23:00.000Z,6.5
2019-02-16T23:28:00.000Z,6.4
2019-02-16T23:33:00.000Z,6.4
2019-02-16T23:38:00.000Z,6.4
2019-02-16T23:43:00.000Z,6.4
2019-02-16T23:48:00.000Z,6.4
2019-02-16T23:53:00.000Z,6.2
2019-02-16T23:58:00.000Z,6.1
